Time;durP1;ratioP1;P1;durP2;ratioP2;P2;SDS_P1;SDS_P2;PMS_P1;PMS_P2;Temp;Humidity;BMP_temperature;BMP_pressure;BME280_temperature;BME280_humidity;BME280_pressure;Samples;Min_cycle;Max_cycle;Signal;HPM_P1;HPM_P2
2024/01/03 00:00:20;;;;;;;4.63;1.17;;;;;;;12.46;63.09;98661.72;5087490;28;20040;-72
2024/01/03 00:02:46;;;;;;;7.88;1.40;;;;;;;12.50;62.23;98675.56;5085080;28;20063;-71
2024/01/03 00:05:12;;;;;;;4.20;1.40;;;;;;;12.38;62.90;98674.75;5089524;28;20122;-71
2024/01/03 00:07:38;;;;;;;6.03;1.35;;;;;;;12.44;62.63;98668.94;5086390;28;20299;-72
2024/01/03 00:10:20;;;;;;;6.95;1.77;;;;;;;12.41;63.65;98678.97;5086093;28;20040;-72
2024/01/03 00:12:45;;;;;;;;;;;;;;;12.48;63.26;98650.97;5085982;28;20102;-73
2024/01/03 00:15:33;;;;;;;7.45;1.88;;;;;;;12.44;64.40;98673.41;5093118;28;20003;-72
2024/01/03 00:17:59;;;;;;;7.68;1.27;;;;;;;12.36;62.83;98668.75;5092907;28;20035;-72
2024/01/03 00:20:24;;;;;;;7.82;2.05;;;;;;;12.30;62.91;98695.72;5096544;28;20082;-71
2024/01/03 00:22:50;;;;;;;8.10;1.40;;;;;;;12.41;63.33;98687.75;5085749;28;20778;-77
2024/01/03 00:25:15;;;;;;;2.65;1.20;;;;;;;12.35;63.11;98688.25;5083670;28;20040;-75
2024/01/03 00:27:40;;;;;;;6.65;1.55;;;;;;;12.37;63.14;98707.53;5085440;28;20028;-76
2024/01/03 00:30:06;;;;;;;5.72;1.60;;;;;;;12.35;62.78;98703.31;5086733;28;20053;-76
2024/01/03 00:32:33;;;;;;;7.10;1.15;;;;;;;12.33;64.00;98721.16;5075406;28;20528;-76
2024/01/03 00:34:59;;;;;;;10.35;1.92;;;;;;;12.24;65.35;98712.97;5074581;28;20027;-76
2024/01/03 00:37:27;;;;;;;10.45;2.05;;;;;;;12.17;65.41;98711.81;5083660;28;20042;-76
2024/01/03 00:39:54;;;;;;;11.38;2.33;;;;;;;12.24;66.07;98736.81;5081828;28;20696;-77
2024/01/03 00:42:19;;;;;;;8.10;1.50;;;;;;;12.30;65.66;98721.38;5079664;28;20420;-76
2024/01/03 00:44:45;;;;;;;12.32;2.25;;;;;;;12.28;65.40;98718.03;5080064;28;20078;-75
2024/01/03 00:47:11;;;;;;;8.07;1.73;;;;;;;12.19;66.55;98738.16;5077401;28;20032;-76
2024/01/03 00:49:37;;;;;;;7.78;1.88;;;;;;;12.17;67.27;98737.41;5091701;28;20039;-76
2024/01/03 00:52:03;;;;;;;10.80;2.13;;;;;;;12.11;67.31;98737.91;5083191;28;20030;-76
2024/01/03 00:54:30;;;;;;;17.88;3.63;;;;;;;12.12;67.94;98726.34;5082232;28;20036;-77
2024/01/03 00:56:58;;;;;;;13.32;2.30;;;;;;;12.10;68.70;98734.44;5081228;28;20464;-76
2024/01/03 00:59:24;;;;;;;9.40;1.67;;;;;;;12.05;69.88;98744.56;5079811;28;20031;-77
2024/01/03 01:01:50;;;;;;;8.65;2.17;;;;;;;11.97;70.88;98739.03;5078185;28;20024;-77
2024/01/03 01:04:15;;;;;;;13.75;2.65;;;;;;;11.95;71.65;98744.44;5079800;28;20037;-76
2024/01/03 01:06:42;;;;;;;13.52;2.55;;;;;;;11.90;71.64;98748.44;5081757;28;20028;-75
2024/01/03 01:09:08;;;;;;;16.08;3.17;;;;;;;11.88;71.81;98747.69;5059368;28;20079;-76
2024/01/03 01:11:36;;;;;;;16.23;2.28;;;;;;;11.82;71.91;98746.38;5084460;28;20031;-76
2024/01/03 01:14:02;;;;;;;20.42;3.03;;;;;;;11.80;72.05;98755.34;5086310;28;20039;-77
2024/01/03 01:16:27;;;;;;;16.17;3.17;;;;;;;11.86;72.13;98757.56;5085233;28;20032;-75
2024/01/03 01:18:52;;;;;;;13.57;2.22;;;;;;;11.88;72.46;98763.59;5082220;28;20459;-76
2024/01/03 01:21:18;;;;;;;14.88;2.30;;;;;;;11.90;72.01;98759.03;5090362;28;20039;-76
2024/01/03 01:23:43;;;;;;;11.02;2.63;;;;;;;11.88;71.87;98753.00;5083952;28;20024;-72
2024/01/03 01:26:09;;;;;;;11.30;2.35;;;;;;;11.87;72.25;98775.16;5090995;28;20081;-74
2024/01/03 01:28:34;;;;;;;14.40;2.35;;;;;;;11.91;71.82;98766.84;5092542;28;20026;-72
2024/01/03 01:31:00;;;;;;;14.90;3.05;;;;;;;11.93;71.69;98772.84;5092053;28;21441;-73
2024/01/03 01:33:25;;;;;;;18.83;2.53;;;;;;;11.92;72.51;98770.31;5093484;28;20031;-72
2024/01/03 01:35:50;;;;;;;13.77;2.88;;;;;;;11.87;72.38;98781.28;5092041;28;20424;-72
2024/01/03 01:38:16;;;;;;;13.85;2.25;;;;;;;11.86;71.92;98776.94;5090707;28;20455;-72
2024/01/03 01:40:41;;;;;;;13.77;2.72;;;;;;;11.91;71.99;98787.19;5097055;28;20054;-71
2024/01/03 01:43:07;;;;;;;17.55;3.28;;;;;;;11.89;72.77;98789.09;5092199;28;20028;-71
2024/01/03 01:45:33;;;;;;;17.02;2.92;;;;;;;11.88;73.07;98784.75;5069148;28;20036;-72
2024/01/03 01:47:59;;;;;;;12.02;3.22;;;;;;;11.90;73.03;98785.50;5091698;28;20030;-73
2024/01/03 01:50:25;;;;;;;18.20;3.05;;;;;;;11.86;73.80;98792.00;5094582;28;20122;-72
2024/01/03 01:52:52;;;;;;;14.05;2.65;;;;;;;11.88;73.19;98801.50;5090405;28;20480;-73
2024/01/03 01:55:18;;;;;;;17.95;3.13;;;;;;;11.85;73.04;98799.09;5074348;28;20123;-72
2024/01/03 01:57:44;;;;;;;15.77;2.42;;;;;;;11.88;73.00;98809.44;5091050;28;20474;-71
2024/01/03 02:00:11;;;;;;;11.45;2.97;;;;;;;11.89;72.70;98811.16;5092281;28;20024;-72
2024/01/03 02:02:37;;;;;;;16.85;2.97;;;;;;;11.94;72.02;98813.44;5071761;28;20043;-73
2024/01/03 02:05:02;;;;;;;11.77;2.40;;;;;;;11.92;71.24;98804.75;5091529;28;20036;-71
2024/01/03 02:07:30;;;;;;;12.52;2.47;;;;;;;12.01;70.72;98806.69;5091491;28;20051;-72
2024/01/03 02:09:55;;;;;;;12.27;2.65;;;;;;;12.11;70.95;98820.88;5091537;28;20044;-72
2024/01/03 02:12:28;;;;;;;10.35;2.40;;;;;;;12.08;71.24;98822.94;5090738;28;20432;-72
2024/01/03 02:14:53;;;;;;;11.65;2.05;;;;;;;12.07;70.34;98831.84;5093870;28;20379;-73
2024/01/03 02:17:20;;;;;;;13.55;3.00;;;;;;;12.10;70.88;98821.84;5096468;28;20031;-72
2024/01/03 02:19:46;;;;;;;11.75;2.20;;;;;;;11.98;72.18;98817.50;5094455;28;20055;-71
2024/01/03 02:22:11;;;;;;;8.90;2.42;;;;;;;12.06;72.61;98846.88;5089830;28;20574;-71
2024/01/03 02:24:36;;;;;;;10.65;2.90;;;;;;;11.99;73.68;98830.63;5073322;28;20033;-73
2024/01/03 02:27:02;;;;;;;12.60;2.45;;;;;;;12.00;73.62;98837.63;5086280;28;20024;-72
2024/01/03 02:29:27;;;;;;;14.20;2.83;;;;;;;11.92;74.28;98839.16;5090501;28;20360;-72
2024/01/03 02:31:53;;;;;;;19.27;3.72;;;;;;;11.88;75.53;98832.44;5090124;28;20028;-72
2024/01/03 02:34:18;;;;;;;19.17;2.65;;;;;;;11.83;76.13;98838.06;5089085;28;20031;-73
2024/01/03 02:36:47;;;;;;;15.75;2.97;;;;;;;11.76;76.42;98842.16;5080292;28;20060;-72
2024/01/03 02:39:13;;;;;;;12.70;3.35;;;;;;;11.73;76.45;98837.91;5088726;28;20028;-72
2024/01/03 02:41:38;;;;;;;17.33;3.05;;;;;;;11.75;76.47;98843.94;5092386;28;20028;-72
2024/01/03 02:44:03;;;;;;;14.63;3.15;;;;;;;11.66;77.03;98839.38;5092518;28;20418;-72
2024/01/03 02:46:29;;;;;;;14.73;3.00;;;;;;;11.67;77.36;98830.44;5096981;28;20062;-72
2024/01/03 02:48:54;;;;;;;10.45;2.67;;;;;;;11.62;76.82;98835.25;5090257;28;20032;-72
2024/01/03 02:51:22;;;;;;;20.77;4.13;;;;;;;11.59;76.46;98835.47;5088832;28;20052;-72
2024/01/03 02:53:48;;;;;;;10.18;2.13;;;;;;;11.63;77.14;98847.53;5060372;28;20517;-72
2024/01/03 02:56:14;;;;;;;11.85;2.60;;;;;;;11.64;76.40;98846.56;5096428;28;20024;-72
2024/01/03 02:58:40;;;;;;;11.80;2.00;;;;;;;11.59;76.10;98854.00;5092097;28;20036;-72
2024/01/03 03:01:05;;;;;;;11.65;2.50;;;;;;;11.59;76.47;98839.94;5088829;28;20028;-73
2024/01/03 03:03:30;;;;;;;17.63;2.80;;;;;;;11.54;76.40;98848.22;5089648;28;20180;-72
2024/01/03 03:05:56;;;;;;;11.68;2.88;;;;;;;11.55;77.12;98841.13;5088916;28;20058;-72
2024/01/03 03:08:22;;;;;;;14.25;2.60;;;;;;;11.49;77.67;98848.56;5088896;28;20056;-72
2024/01/03 03:10:47;;;;;;;19.75;4.15;;;;;;;11.46;78.25;98858.53;5087582;28;21165;-71
2024/01/03 03:13:12;;;;;;;10.38;2.35;;;;;;;11.47;77.72;98847.84;5083922;28;20048;-72
2024/01/03 03:15:38;;;;;;;11.38;2.70;;;;;;;11.43;78.44;98851.69;5087244;28;20297;-73
2024/01/03 03:18:03;;;;;;;17.65;2.45;;;;;;;11.44;78.41;98849.88;5090460;28;20024;-73
2024/01/03 03:20:29;;;;;;;13.38;2.65;;;;;;;11.37;78.28;98848.66;5085778;28;20031;-73
2024/01/03 03:22:54;;;;;;;11.10;2.30;;;;;;;11.39;78.19;98850.22;5089390;28;20028;-72
2024/01/03 03:25:19;;;;;;;12.40;2.60;;;;;;;11.46;78.19;98847.94;5091871;28;20028;-73
2024/01/03 03:27:45;;;;;;;17.38;2.63;;;;;;;11.42;78.73;98839.44;5091613;28;20035;-73
2024/01/03 03:30:11;;;;;;;14.48;2.75;;;;;;;11.48;78.76;98861.94;5089866;28;20407;-72
2024/01/03 03:32:36;;;;;;;17.92;3.08;;;;;;;11.41;78.96;98861.53;5089070;28;20080;-72
2024/01/03 03:35:01;;;;;;;13.43;3.13;;;;;;;11.46;79.41;98863.84;5090320;28;20020;-72
2024/01/03 03:37:27;;;;;;;12.15;2.33;;;;;;;11.41;80.13;98858.03;5090488;28;20023;-72
2024/01/03 03:39:52;;;;;;;19.83;4.10;;;;;;;11.30;80.82;98858.84;5085812;28;20029;-73
2024/01/03 03:42:22;;;;;;;20.33;3.33;;;;;;;11.36;81.08;98862.84;5089580;28;20024;-72
2024/01/03 03:44:47;;;;;;;16.20;3.40;;;;;;;11.30;81.31;98858.03;5094056;28;20020;-74
2024/01/03 03:47:13;;;;;;;17.10;3.50;;;;;;;11.32;81.07;98858.72;5088302;28;20024;-72
2024/01/03 03:49:38;;;;;;;15.95;2.85;;;;;;;11.30;81.07;98850.09;5091517;28;20082;-72
2024/01/03 03:52:04;;;;;;;15.85;3.47;;;;;;;11.23;81.00;98844.38;5085994;28;20028;-71
2024/01/03 03:54:29;;;;;;;17.63;3.83;;;;;;;11.23;81.50;98849.69;5089327;28;20020;-76
2024/01/03 03:56:54;;;;;;;18.23;3.08;;;;;;;11.19;82.09;98845.56;5091644;28;20031;-76
2024/01/03 03:59:20;;;;;;;21.52;3.53;;;;;;;11.12;82.38;98845.19;5089826;28;20031;-76
2024/01/03 04:01:51;;;;;;;17.35;3.38;;;;;;;11.09;84.37;98853.34;5088786;28;20059;-77
2024/01/03 04:04:17;;;;;;;27.13;4.13;;;;;;;11.00;84.93;98846.09;5089097;28;20107;-77
2024/01/03 04:06:43;;;;;;;19.52;4.05;;;;;;;10.88;84.91;98839.94;5093846;28;20425;-77
2024/01/03 04:09:10;;;;;;;14.55;2.70;;;;;;;10.78;86.74;98851.28;5090268;28;20038;-78
2024/01/03 04:11:44;;;;;;;18.67;3.22;;;;;;;11.01;83.84;98844.31;5088305;28;20034;-77
2024/01/03 04:14:10;;;;;;;14.88;3.50;;;;;;;11.05;82.33;98845.75;5090566;28;20430;-77
2024/01/03 04:16:36;;;;;;;12.00;2.67;;;;;;;11.08;81.99;98869.34;5088737;28;20028;-77
2024/01/03 04:19:02;;;;;;;13.10;2.67;;;;;;;11.11;82.12;98859.38;5089335;28;20089;-76
2024/01/03 04:21:29;;;;;;;14.93;1.95;;;;;;;11.09;81.91;98865.72;5088205;28;20047;-77
2024/01/03 04:23:54;;;;;;;10.23;2.53;;;;;;;11.13;81.74;98875.97;5070354;28;20085;-76
2024/01/03 04:26:20;;;;;;;10.77;2.13;;;;;;;11.01;81.84;98871.59;5089555;28;20036;-77
2024/01/03 04:28:45;;;;;;;10.25;1.90;;;;;;;11.02;81.70;98869.81;5071300;28;20035;-76
2024/01/03 04:31:11;;;;;;;7.63;2.03;;;;;;;10.90;82.29;98876.81;5089198;28;20143;-77
2024/01/03 04:33:36;;;;;;;11.77;2.53;;;;;;;10.84;82.28;98888.69;5088559;28;20024;-76
2024/01/03 04:36:01;;;;;;;10.07;2.42;;;;;;;10.97;82.11;98886.84;5089509;28;20012;-77
2024/01/03 04:38:27;;;;;;;11.38;1.58;;;;;;;11.00;81.78;98877.81;5087985;28;20475;-76
2024/01/03 04:40:52;;;;;;;13.50;1.70;;;;;;;10.98;82.57;98882.41;5084267;28;20024;-76
2024/01/03 04:43:18;;;;;;;9.02;1.70;;;;;;;10.85;83.27;98873.66;5085711;28;20037;-77
2024/01/03 04:45:43;;;;;;;7.50;1.85;;;;;;;10.93;82.84;98877.44;5083631;28;20075;-77
2024/01/03 04:48:08;;;;;;;11.00;1.70;;;;;;;10.88;82.62;98878.75;5089762;28;20557;-77
2024/01/03 04:50:34;;;;;;;7.38;1.88;;;;;;;10.86;81.98;98867.41;5089380;28;20020;-77
2024/01/03 04:52:59;;;;;;;8.93;1.73;;;;;;;10.92;81.18;98886.34;5088119;28;20062;-77
2024/01/03 04:55:25;;;;;;;8.00;1.30;;;;;;;10.98;81.33;98880.59;5093318;28;20027;-73
2024/01/03 04:57:51;;;;;;;7.10;1.58;;;;;;;10.92;80.65;98873.13;5071495;28;20039;-73
2024/01/03 05:00:16;;;;;;;5.65;1.45;;;;;;;11.06;80.08;98885.34;5089178;28;20028;-73
2024/01/03 05:02:42;;;;;;;8.75;1.30;;;;;;;11.02;79.59;98885.66;5088905;28;20036;-72
2024/01/03 05:05:07;;;;;;;8.68;2.30;;;;;;;10.98;79.81;98890.31;5089367;28;20131;-72
2024/01/03 05:07:34;;;;;;;3.28;1.10;;;;;;;11.03;79.88;98896.13;5085955;28;20498;-73
2024/01/03 05:10:00;;;;;;;6.30;1.35;;;;;;;10.87;80.68;98887.63;5089579;28;20044;-72
2024/01/03 05:12:26;;;;;;;6.47;1.48;;;;;;;10.93;80.80;98903.03;5086713;28;20391;-74
2024/01/03 05:14:51;;;;;;;7.03;2.22;;;;;;;10.87;81.30;98898.22;5090359;28;20016;-72
2024/01/03 05:17:16;;;;;;;7.15;1.38;;;;;;;10.69;85.53;98895.94;5089717;28;20028;-72
2024/01/03 05:19:43;;;;;;;7.97;1.20;;;;;;;10.55;85.24;98890.78;5089492;28;20027;-73
2024/01/03 05:22:08;;;;;;;4.95;1.25;;;;;;;10.45;86.11;98898.53;5073833;28;20036;-74
2024/01/03 05:24:34;;;;;;;8.23;1.20;;;;;;;10.45;87.40;98895.88;5091564;28;20032;-74
2024/01/03 05:26:59;;;;;;;5.45;0.93;;;;;;;10.37;86.90;98894.72;5089788;28;20090;-73
2024/01/03 05:29:25;;;;;;;4.88;1.05;;;;;;;10.43;87.01;98892.50;5071402;28;20050;-73
2024/01/03 05:31:50;;;;;;;9.98;1.23;;;;;;;10.42;86.07;98897.88;5088910;28;20040;-74
2024/01/03 05:34:16;;;;;;;3.45;0.95;;;;;;;10.45;85.72;98895.03;5089624;28;20455;-72
2024/01/03 05:36:41;;;;;;;4.88;1.08;;;;;;;10.47;85.84;98891.31;5087084;28;20410;-73
2024/01/03 05:39:07;;;;;;;7.93;0.98;;;;;;;10.50;85.53;98905.28;5089883;28;20024;-74
2024/01/03 05:41:32;;;;;;;7.55;1.10;;;;;;;10.46;86.19;98886.16;5088942;28;20020;-74
2024/01/03 05:43:57;;;;;;;7.15;1.40;;;;;;;10.41;87.08;98898.84;5092331;28;20035;-74
2024/01/03 05:46:23;;;;;;;6.88;1.02;;;;;;;10.40;87.28;98894.53;5071303;28;20032;-74
2024/01/03 05:48:49;;;;;;;4.03;1.38;;;;;;;10.26;86.89;98892.84;5089668;28;20511;-74
2024/01/03 05:51:16;;;;;;;5.25;1.75;;;;;;;10.21;88.25;98910.75;5066005;28;20028;-73
2024/01/03 05:53:47;;;;;;;4.05;1.45;;;;;;;10.25;88.21;98901.69;5088083;28;20031;-73
2024/01/03 05:56:13;;;;;;;5.85;1.20;;;;;;;10.19;87.97;98896.81;5072113;28;20108;-73
2024/01/03 05:58:38;;;;;;;5.25;0.88;;;;;;;10.21;88.03;98898.44;5085790;28;20031;-73
2024/01/03 06:01:04;;;;;;;4.40;1.02;;;;;;;10.17;88.10;98907.50;5089793;28;20439;-73
2024/01/03 06:03:29;;;;;;;3.33;1.30;;;;;;;10.17;88.54;98896.09;5065296;28;20501;-75
2024/01/03 06:05:54;;;;;;;5.78;1.20;;;;;;;10.15;88.77;98906.75;5088972;28;20387;-73
2024/01/03 06:08:20;;;;;;;3.92;0.82;;;;;;;10.13;89.38;98905.19;5087934;28;20123;-73
2024/01/03 06:10:45;;;;;;;4.82;0.80;;;;;;;10.19;88.99;98913.50;5091169;28;20028;-74
2024/01/03 06:13:14;;;;;;;6.40;1.50;;;;;;;9.94;91.88;98911.72;5093536;28;20034;-74
2024/01/03 06:15:40;;;;;;;5.28;1.25;;;;;;;9.91;92.72;98905.81;5073811;28;20016;-80
2024/01/03 06:18:05;;;;;;;8.30;1.77;;;;;;;9.83;93.78;98916.88;5079181;28;20447;-79
2024/01/03 06:20:31;;;;;;;4.53;1.40;;;;;;;9.90;94.42;98912.88;5076529;28;20034;-78
2024/01/03 06:22:56;;;;;;;6.25;1.58;;;;;;;9.89;92.99;98919.13;5092703;28;20030;-79
2024/01/03 06:25:21;;;;;;;9.15;1.50;;;;;;;9.90;94.27;98914.69;5091920;28;20344;-79
2024/01/03 06:27:47;;;;;;;5.38;1.10;;;;;;;9.89;94.01;98918.28;5091879;28;20023;-79
2024/01/03 06:30:12;;;;;;;5.30;1.15;;;;;;;9.91;93.89;98916.38;5095097;28;20086;-79
2024/01/03 06:32:38;;;;;;;7.25;1.27;;;;;;;9.88;93.81;98919.19;5091743;28;20046;-77
2024/01/03 06:35:04;;;;;;;4.72;0.90;;;;;;;9.84;93.62;98917.72;5093052;28;20104;-80
2024/01/03 06:37:29;;;;;;;3.58;1.30;;;;;;;9.81;93.53;98904.75;5074162;28;20578;-77
2024/01/03 06:39:54;;;;;;;4.18;1.00;;;;;;;9.80;93.31;98900.44;5092404;28;20055;-78
2024/01/03 06:42:20;;;;;;;5.47;0.98;;;;;;;9.81;93.58;98902.09;5073066;28;20061;-77
2024/01/03 06:44:45;;;;;;;5.30;2.10;;;;;;;9.84;93.65;98909.78;5094900;28;20019;-77
2024/01/03 06:47:10;;;;;;;4.00;1.00;;;;;;;9.81;93.23;98912.66;5100663;28;20111;-77
2024/01/03 06:49:36;;;;;;;5.97;1.13;;;;;;;9.82;93.11;98919.63;5078290;28;20028;-78
2024/01/03 06:52:01;;;;;;;4.28;1.05;;;;;;;9.76;93.60;98914.78;5095796;28;20073;-78
2024/01/03 06:54:26;;;;;;;4.45;0.98;;;;;;;9.79;93.51;98914.53;5094855;28;20081;-78
2024/01/03 06:56:52;;;;;;;4.40;1.00;;;;;;;9.71;93.14;98912.44;5092383;28;20024;-78
2024/01/03 06:59:17;;;;;;;2.47;0.88;;;;;;;9.73;93.44;98928.16;5071862;28;20036;-79
2024/01/03 07:01:42;;;;;;;4.32;1.10;;;;;;;9.74;93.47;98928.06;5098579;28;20032;-77
2024/01/03 07:04:08;;;;;;;4.60;1.02;;;;;;;9.68;93.00;98939.88;5072997;28;20041;-78
2024/01/03 07:06:33;;;;;;;1.05;0.85;;;;;;;9.70;92.18;98948.53;5092157;28;20111;-77
2024/01/03 07:08:58;;;;;;;2.33;0.80;;;;;;;9.65;92.44;98942.72;5076769;28;20036;-78
2024/01/03 07:11:24;;;;;;;2.40;0.68;;;;;;;9.58;92.54;98953.78;5100371;28;20030;-77
2024/01/03 07:13:49;;;;;;;3.47;0.65;;;;;;;9.44;92.16;98965.25;5096368;28;20077;-79
2024/01/03 07:16:16;;;;;;;4.30;0.70;;;;;;;9.44;92.82;98950.25;5078006;28;20090;-78
2024/01/03 07:18:41;;;;;;;1.25;0.40;;;;;;;9.38;92.74;98952.47;5097609;28;20034;-78
2024/01/03 07:21:08;;;;;;;2.63;0.80;;;;;;;9.33;92.89;98959.84;5090160;28;20387;-77
2024/01/03 07:23:33;;;;;;;2.13;0.47;;;;;;;9.23;92.00;98945.53;5072318;28;20087;-77
2024/01/03 07:25:58;;;;;;;1.13;0.50;;;;;;;9.26;91.42;98948.81;5073203;28;20028;-74
2024/01/03 07:28:24;;;;;;;0.50;0.30;;;;;;;9.22;91.28;98959.66;5071454;28;20088;-72
2024/01/03 07:30:49;;;;;;;1.45;0.30;;;;;;;9.19;91.20;98964.22;5096374;28;20015;-73
2024/01/03 07:33:14;;;;;;;0.40;0.22;;;;;;;9.17;90.87;98950.25;5071603;28;20060;-72
2024/01/03 07:35:40;;;;;;;1.10;0.28;;;;;;;9.09;90.60;98964.88;5090787;28;20021;-73
2024/01/03 07:38:06;;;;;;;1.25;0.38;;;;;;;9.10;90.67;98971.88;5096054;28;20039;-72
2024/01/03 07:40:31;;;;;;;2.88;0.45;;;;;;;9.12;91.54;98976.06;5091000;28;20053;-74
2024/01/03 07:42:56;;;;;;;3.30;0.52;;;;;;;9.17;92.30;98974.00;5089821;28;20069;-73
2024/01/03 07:45:22;;;;;;;1.35;0.70;;;;;;;9.14;93.05;98973.38;5085691;28;20058;-72
2024/01/03 07:47:47;;;;;;;0.93;0.60;;;;;;;9.11;93.38;98973.56;5089978;28;20028;-73
2024/01/03 07:50:12;;;;;;;1.20;0.77;;;;;;;9.15;94.19;98982.97;5088553;28;20024;-72
2024/01/03 07:52:38;;;;;;;1.83;0.70;;;;;;;9.19;94.06;98977.38;5071126;28;20036;-73
2024/01/03 07:55:04;;;;;;;2.95;1.10;;;;;;;9.20;94.22;98987.00;5092074;28;20023;-73
2024/01/03 07:57:29;;;;;;;2.95;1.05;;;;;;;9.19;94.36;98990.56;5072498;28;20016;-72
2024/01/03 07:59:54;;;;;;;2.03;0.98;;;;;;;9.26;93.94;98984.91;5090629;28;20031;-72
2024/01/03 08:02:20;;;;;;;4.28;1.20;;;;;;;9.22;93.80;98986.88;5088931;28;20032;-73
2024/01/03 08:04:45;;;;;;;2.42;1.50;;;;;;;9.30;94.14;98986.41;5090295;28;20035;-72
2024/01/03 08:07:10;;;;;;;3.75;1.63;;;;;;;9.37;92.93;98988.53;5091664;28;20024;-72
2024/01/03 08:09:37;;;;;;;4.25;2.20;;;;;;;9.41;93.13;98992.66;5092665;28;20079;-72
2024/01/03 08:12:05;;;;;;;4.75;1.60;;;;;;;9.41;92.91;98992.66;5072633;28;20028;-73
2024/01/03 08:14:30;;;;;;;5.15;1.42;;;;;;;9.46;92.23;98987.06;5070797;28;20020;-72
2024/01/03 08:16:56;;;;;;;5.75;1.42;;;;;;;9.47;92.37;98983.53;5100176;28;20517;-73
2024/01/03 08:19:21;;;;;;;4.30;1.45;;;;;;;9.50;92.33;98980.66;5089447;28;20042;-73
2024/01/03 08:21:46;;;;;;;3.15;1.02;;;;;;;9.50;92.08;98993.84;5090059;28;20039;-73
2024/01/03 08:24:12;;;;;;;4.00;1.27;;;;;;;9.53;91.78;98993.66;5088626;28;20128;-73
2024/01/03 08:26:37;;;;;;;4.15;1.30;;;;;;;9.51;92.13;98992.06;5090258;28;20020;-73
2024/01/03 08:29:02;;;;;;;4.88;1.63;;;;;;;9.58;91.52;98994.19;5089405;28;20122;-73
2024/01/03 08:31:28;;;;;;;6.13;1.27;;;;;;;9.56;91.39;98998.75;5073431;28;20612;-73
2024/01/03 08:33:54;;;;;;;9.70;1.40;;;;;;;9.60;91.50;98997.56;5092576;28;20023;-73
2024/01/03 08:36:19;;;;;;;5.15;0.90;;;;;;;9.59;91.69;99002.97;5082916;28;20028;-75
2024/01/03 08:38:44;;;;;;;5.63;0.95;;;;;;;9.60;91.61;99007.28;5063849;28;20039;-73
2024/01/03 08:41:15;;;;;;;6.28;1.40;;;;;;;9.64;91.63;99009.63;5087132;28;20020;-73
2024/01/03 08:43:40;;;;;;;11.00;1.65;;;;;;;9.66;90.94;99010.38;5059603;28;20194;-74
2024/01/03 08:46:06;;;;;;;12.32;1.55;;;;;;;9.65;91.09;99015.75;5086421;28;20450;-78
2024/01/03 08:48:31;;;;;;;9.05;1.30;;;;;;;9.73;91.23;99007.31;5068644;28;20039;-77
2024/01/03 08:50:57;;;;;;;5.38;1.30;;;;;;;9.68;91.06;99013.75;5087834;28;20476;-77
2024/01/03 08:53:22;;;;;;;7.72;1.50;;;;;;;9.76;91.19;99010.63;5087445;28;20479;-77
2024/01/03 08:55:47;;;;;;;8.00;1.67;;;;;;;9.80;90.92;99017.38;5088969;28;20043;-77
2024/01/03 08:58:13;;;;;;;10.13;2.13;;;;;;;9.82;90.64;99012.84;5087051;28;20063;-77
2024/01/03 09:00:42;;;;;;;6.88;2.15;;;;;;;9.79;90.50;99020.97;5084552;28;20067;-77
2024/01/03 09:03:07;;;;;;;9.93;1.73;;;;;;;9.97;90.17;99019.72;5066457;28;20024;-77
2024/01/03 09:05:33;;;;;;;8.07;1.75;;;;;;;9.97;89.91;99019.72;5067116;28;20056;-77
2024/01/03 09:07:58;;;;;;;12.98;2.35;;;;;;;9.99;89.24;99019.66;5090057;28;20457;-79
2024/01/03 09:10:23;;;;;;;17.27;3.60;;;;;;;10.07;89.35;99020.00;5085144;28;20028;-77
2024/01/03 09:12:49;;;;;;;12.25;2.05;;;;;;;10.15;88.84;99022.09;5084209;28;20371;-77
2024/01/03 09:15:15;;;;;;;9.52;1.38;;;;;;;10.25;88.81;99023.19;5070762;28;20024;-77
2024/01/03 09:17:43;;;;;;;13.65;2.40;;;;;;;10.28;88.37;99024.78;5086312;28;20584;-77
2024/01/03 09:20:12;;;;;;;12.82;2.22;;;;;;;10.35;88.06;99031.34;5081850;28;20039;-77
2024/01/03 09:22:38;;;;;;;13.70;2.30;;;;;;;10.41;87.64;99025.66;5076856;28;20028;-77
2024/01/03 09:25:04;;;;;;;8.68;2.03;;;;;;;10.46;87.53;99026.19;5065525;28;20041;-78
2024/01/03 09:27:29;;;;;;;20.08;2.88;;;;;;;10.51;87.27;99029.34;5086511;28;20035;-78
2024/01/03 09:29:55;;;;;;;12.38;1.77;;;;;;;10.59;88.05;99031.47;5083090;28;20376;-78
2024/01/03 09:32:21;;;;;;;13.70;2.38;;;;;;;10.65;87.10;99029.22;5064311;28;20035;-78
2024/01/03 09:34:46;;;;;;;10.55;1.90;;;;;;;10.67;87.01;99037.03;5088643;28;20017;-78
2024/01/03 09:37:12;;;;;;;14.52;2.63;;;;;;;10.84;86.49;99041.16;5069852;28;20188;-78
2024/01/03 09:39:37;;;;;;;17.73;2.65;;;;;;;10.86;85.53;99037.44;5069531;28;20032;-78
2024/01/03 09:42:03;;;;;;;12.75;2.13;;;;;;;10.97;84.57;99042.84;5081228;28;20056;-78
2024/01/03 09:44:29;;;;;;;9.43;2.40;;;;;;;10.87;84.95;99039.16;5087090;28;20513;-77
2024/01/03 09:46:56;;;;;;;16.88;2.40;;;;;;;11.19;84.38;99036.88;5088465;28;20115;-74
2024/01/03 09:49:21;;;;;;;18.40;2.60;;;;;;;11.80;81.90;99042.16;5086584;28;20519;-73
2024/01/03 09:51:47;;;;;;;13.88;2.45;;;;;;;11.83;81.14;99041.94;5091704;28;20107;-74
2024/01/03 09:54:13;;;;;;;14.35;2.35;;;;;;;12.10;79.45;99054.94;5076313;28;20032;-73
2024/01/03 09:56:40;;;;;;;9.52;1.77;;;;;;;12.04;79.19;99049.28;5071748;28;20364;-79
2024/01/03 09:59:06;;;;;;;9.02;2.55;;;;;;;12.00;80.16;99032.75;5086076;28;20036;-78
2024/01/03 10:01:32;;;;;;;12.45;2.30;;;;;;;12.01;79.41;99055.63;5088473;28;20081;-79
2024/01/03 10:03:58;;;;;;;17.23;2.30;;;;;;;11.98;79.64;99053.19;5087848;28;20036;-77
2024/01/03 10:06:23;;;;;;;14.02;2.80;;;;;;;11.92;79.59;99054.50;5087828;28;20431;-79
2024/01/03 10:09:02;;;;;;;10.82;2.13;;;;;;;11.81;79.83;99057.09;5090640;28;20044;-77
2024/01/03 10:11:27;;;;;;;12.18;2.50;;;;;;;11.60;79.91;99048.91;5083769;28;20444;-78
2024/01/03 10:13:55;;;;;;;17.92;2.72;;;;;;;11.60;80.65;99064.78;5085408;28;20063;-79
2024/01/03 10:16:25;;;;;;;16.10;2.58;;;;;;;11.59;80.21;99076.34;5083931;28;20479;-79
2024/01/03 10:19:11;;;;;;;14.70;3.05;;;;;;;11.57;80.52;99062.38;5089279;28;20028;-78
2024/01/03 10:21:48;;;;;;;10.68;2.10;;;;;;;11.53;80.38;99068.84;5085034;28;20031;-78
2024/01/03 10:24:13;;;;;;;8.55;2.05;;;;;;;11.46;80.50;99051.72;5086230;28;20032;-78
2024/01/03 10:26:39;;;;;;;17.05;2.97;;;;;;;11.57;80.38;99066.81;5090736;28;20445;-77
2024/01/03 10:29:12;;;;;;;14.48;3.30;;;;;;;12.07;78.53;99076.34;5063963;28;20030;-77
2024/01/03 10:31:37;;;;;;;14.25;2.95;;;;;;;12.34;77.75;99072.59;5066282;28;20039;-77
2024/01/03 10:34:06;;;;;;;19.35;2.80;;;;;;;12.33;77.86;99071.75;5081976;28;20028;-77
2024/01/03 10:36:35;;;;;;;13.63;2.75;;;;;;;12.06;78.33;99079.97;5071636;28;20081;-77
2024/01/03 10:39:02;;;;;;;12.82;2.75;;;;;;;11.94;78.73;99070.31;5079959;28;20028;-76
2024/01/03 10:41:30;;;;;;;14.98;2.58;;;;;;;11.70;77.99;99079.06;5087863;28;20035;-77
2024/01/03 10:43:58;;;;;;;12.23;2.50;;;;;;;11.76;79.13;99072.47;5085347;28;20271;-78
2024/01/03 10:46:25;;;;;;;12.38;2.65;;;;;;;11.72;79.76;99084.22;5067882;28;20040;-78
2024/01/03 10:48:50;;;;;;;16.70;2.38;;;;;;;11.69;79.90;99076.50;5094034;28;20052;-77
2024/01/03 10:51:22;;;;;;;13.75;2.28;;;;;;;11.64;78.85;99090.06;5085090;28;20058;-77
2024/01/03 10:53:49;;;;;;;16.15;3.25;;;;;;;11.62;78.57;99078.75;5085278;28;20102;-77
2024/01/03 10:56:15;;;;;;;17.20;2.90;;;;;;;11.54;79.48;99083.75;5085732;28;20078;-73
2024/01/03 10:58:41;;;;;;;11.52;2.30;;;;;;;11.60;79.21;99085.94;5084680;28;20028;-72
2024/01/03 11:01:16;;;;;;;11.73;2.55;;;;;;;11.58;78.80;99079.94;5062883;28;20364;-73
2024/01/03 11:03:58;;;;;;;15.00;2.40;;;;;;;11.64;79.25;99071.53;5088426;28;20476;-74
2024/01/03 11:06:29;;;;;;;15.38;2.80;;;;;;;11.91;78.56;99071.34;5085483;28;20024;-73
2024/01/03 11:09:02;;;;;;;17.13;2.55;;;;;;;11.99;77.01;99069.00;5089081;28;20063;-74
2024/01/03 11:11:29;;;;;;;10.93;2.50;;;;;;;11.98;76.84;99074.38;5087336;28;20020;-73
2024/01/03 11:13:55;;;;;;;14.98;3.17;;;;;;;11.72;77.06;99082.44;5071944;28;20028;-73
2024/01/03 11:16:40;;;;;;;12.93;3.20;;;;;;;11.53;80.39;99060.91;5089483;28;21061;-75
2024/01/03 11:19:09;;;;;;;16.77;3.90;;;;;;;11.31;82.80;99076.63;5073039;28;20598;-75
2024/01/03 11:21:37;;;;;;;12.57;2.55;;;;;;;11.20;84.34;99072.97;5089097;28;20035;-75
2024/01/03 11:24:06;;;;;;;10.38;2.05;;;;;;;11.04;86.72;99080.25;5067522;28;20020;-74
2024/01/03 11:26:58;;;;;;;14.63;2.85;;;;;;;10.76;88.34;99089.28;5065852;28;20399;-74